KQA270 HKJK-FIMP
Flight info
| Callsign | KQA270 |
|---|---|
| Flight time | 3h 40m |
| Altitude | 33000 |
| Route | ATUDU1D UVOVA UQ135 MOKAD/N0474F350 UL433 KISAK/N0475F340 UL433 ATOLA/N0474F350 UL433 APKOT DCT TIBAG TIBAG2E |
| Aircraft | B738/M-SDE1E2E3FGHIJ2J3J4J5M1RWXYZ/LB1D1 |
Departure
| Time | 2026-05-06 14:17 |
|---|---|
| Airport | Jomo Kenyatta International Airport (HKJK) |
Arrival
| Time | 2026-05-06 17:57 |
|---|---|
| Airport | Sir Seewoosagur Ramgoolam International Airport (FIMP) |
| Time | Latitude | Longitude | Altitude | Speed | Heading |
|---|---|---|---|---|---|
| 2026-05-06 13:59 | -1.33343 | 36.92460 | 5323 ft | 0 kts | 325° |
| 2026-05-06 14:09 | -1.33358 | 36.92472 | 5313 ft | 4 kts | 311° |
| 2026-05-06 14:09 | -1.33371 | 36.92494 | 5318 ft | 4 kts | 284° |
| 2026-05-06 14:10 | -1.33373 | 36.92520 | 5316 ft | 4 kts | 252° |
| 2026-05-06 14:10 | -1.33360 | 36.92540 | 5313 ft | 3 kts | 207° |
| 2026-05-06 14:10 | -1.33356 | 36.92542 | 5315 ft | 0 kts | 202° |
| 2026-05-06 14:12 | -1.33370 | 36.92534 | 5316 ft | 8 kts | 212° |
| 2026-05-06 14:12 | -1.33427 | 36.92467 | 5321 ft | 15 kts | 242° |
| 2026-05-06 14:12 | -1.33450 | 36.92369 | 5323 ft | 14 kts | 254° |
| 2026-05-06 14:13 | -1.33497 | 36.92293 | 5317 ft | 12 kts | 235° |
| 2026-05-06 14:13 | -1.33528 | 36.92217 | 5323 ft | 12 kts | 281° |
| 2026-05-06 14:13 | -1.33468 | 36.92158 | 5320 ft | 12 kts | 323° |
| 2026-05-06 14:13 | -1.33400 | 36.92112 | 5323 ft | 12 kts | 325° |
| 2026-05-06 14:14 | -1.33335 | 36.92065 | 5322 ft | 12 kts | 326° |
| 2026-05-06 14:14 | -1.33257 | 36.92011 | 5323 ft | 14 kts | 323° |
| 2026-05-06 14:14 | -1.33177 | 36.91950 | 5318 ft | 16 kts | 323° |
| 2026-05-06 14:14 | -1.33085 | 36.91884 | 5320 ft | 17 kts | 323° |
| 2026-05-06 14:15 | -1.32994 | 36.91817 | 5338 ft | 16 kts | 324° |
| 2026-05-06 14:15 | -1.32908 | 36.91756 | 5338 ft | 15 kts | 324° |
| 2026-05-06 14:15 | -1.32821 | 36.91693 | 5337 ft | 18 kts | 324° |
| 2026-05-06 14:15 | -1.32737 | 36.91667 | 5339 ft | 10 kts | 28° |
| 2026-05-06 14:16 | -1.32677 | 36.91749 | 5334 ft | 34 kts | 55° |
| 2026-05-06 14:16 | -1.32388 | 36.92145 | 5319 ft | 105 kts | 54° |
| 2026-05-06 14:16 | -1.31837 | 36.92900 | 5312 ft | 162 kts | 54° |
| 2026-05-06 14:16 | -1.31072 | 36.93933 | 5375 ft | 205 kts | 54° |
| 2026-05-06 14:17 | -1.30186 | 36.95080 | 6091 ft | 204 kts | 58° |
| 2026-05-06 14:17 | -1.29731 | 36.96416 | 6741 ft | 208 kts | 89° |
| 2026-05-06 14:17 | -1.29688 | 36.97833 | 7443 ft | 211 kts | 88° |
| 2026-05-06 14:17 | -1.29588 | 36.99401 | 7717 ft | 243 kts | 86° |
| 2026-05-06 14:18 | -1.29439 | 37.01188 | 8005 ft | 273 kts | 85° |
| 2026-05-06 14:18 | -1.29251 | 37.03125 | 8680 ft | 285 kts | 84° |
| 2026-05-06 14:18 | -1.29043 | 37.05111 | 9586 ft | 290 kts | 83° |
| 2026-05-06 14:18 | -1.28817 | 37.07138 | 10349 ft | 298 kts | 83° |
| 2026-05-06 14:19 | -1.28572 | 37.09261 | 10763 ft | 319 kts | 83° |
| 2026-05-06 14:19 | -1.28305 | 37.11532 | 11097 ft | 341 kts | 83° |
| 2026-05-06 14:19 | -1.28218 | 37.13998 | 11128 ft | 372 kts | 98° |
| 2026-05-06 14:19 | -1.29143 | 37.16482 | 11418 ft | 391 kts | 123° |
| 2026-05-06 14:20 | -1.30926 | 37.18514 | 12404 ft | 389 kts | 134° |
| 2026-05-06 14:20 | -1.32867 | 37.20423 | 13100 ft | 396 kts | 135° |
| 2026-05-06 14:20 | -1.34871 | 37.22350 | 13757 ft | 402 kts | 135° |
| 2026-05-06 14:20 | -1.36895 | 37.24295 | 14439 ft | 404 kts | 135° |
| 2026-05-06 14:21 | -1.38924 | 37.26258 | 15073 ft | 409 kts | 135° |
| 2026-05-06 14:21 | -1.40973 | 37.28254 | 15664 ft | 413 kts | 134° |
| 2026-05-06 14:21 | -1.43027 | 37.30268 | 16339 ft | 415 kts | 134° |
| 2026-05-06 14:21 | -1.45090 | 37.32298 | 16908 ft | 419 kts | 134° |
| 2026-05-06 14:22 | -1.47178 | 37.34358 | 17459 ft | 423 kts | 134° |
| 2026-05-06 14:22 | -1.49279 | 37.36432 | 18033 ft | 426 kts | 134° |
| 2026-05-06 14:22 | -1.51394 | 37.38521 | 18561 ft | 429 kts | 134° |
| 2026-05-06 14:22 | -1.53529 | 37.40629 | 18994 ft | 433 kts | 134° |
| 2026-05-06 14:23 | -1.55674 | 37.42747 | 19466 ft | 435 kts | 134° |
| 2026-05-06 14:23 | -1.57828 | 37.44873 | 19938 ft | 437 kts | 134° |
| 2026-05-06 14:23 | -1.59995 | 37.47013 | 20399 ft | 438 kts | 134° |
| 2026-05-06 14:23 | -1.62138 | 37.49128 | 20837 ft | 440 kts | 134° |
| 2026-05-06 14:24 | -1.64325 | 37.51287 | 21253 ft | 443 kts | 134° |
| 2026-05-06 14:24 | -1.66521 | 37.53456 | 21670 ft | 445 kts | 134° |
| 2026-05-06 14:24 | -1.68724 | 37.55630 | 22066 ft | 446 kts | 134° |
| 2026-05-06 14:24 | -1.70939 | 37.57819 | 22474 ft | 448 kts | 134° |
| 2026-05-06 14:25 | -1.73159 | 37.60011 | 22889 ft | 449 kts | 134° |
| 2026-05-06 14:25 | -1.75384 | 37.62207 | 23251 ft | 451 kts | 134° |
| 2026-05-06 14:25 | -1.77624 | 37.64418 | 23588 ft | 453 kts | 134° |
| 2026-05-06 14:25 | -1.79866 | 37.66643 | 23884 ft | 455 kts | 134° |
| 2026-05-06 14:26 | -1.82114 | 37.68882 | 24145 ft | 457 kts | 134° |
| 2026-05-06 14:26 | -1.84365 | 37.71130 | 24409 ft | 459 kts | 134° |
| 2026-05-06 14:26 | -1.86628 | 37.73390 | 24653 ft | 461 kts | 134° |
| 2026-05-06 14:26 | -1.88901 | 37.75659 | 24906 ft | 463 kts | 134° |
| 2026-05-06 14:27 | -1.91184 | 37.77937 | 25143 ft | 465 kts | 134° |
| 2026-05-06 14:27 | -1.93475 | 37.80224 | 25369 ft | 467 kts | 134° |
| 2026-05-06 14:27 | -1.95776 | 37.82519 | 25607 ft | 468 kts | 134° |
| 2026-05-06 14:27 | -1.98087 | 37.84824 | 25816 ft | 470 kts | 134° |
| 2026-05-06 14:28 | -2.00406 | 37.87138 | 26015 ft | 472 kts | 134° |
| 2026-05-06 14:28 | -2.02737 | 37.89462 | 26217 ft | 474 kts | 134° |
| 2026-05-06 14:28 | -2.05073 | 37.91792 | 26435 ft | 475 kts | 134° |
| 2026-05-06 14:28 | -2.07420 | 37.94134 | 26631 ft | 477 kts | 134° |
| 2026-05-06 14:29 | -2.09774 | 37.96482 | 26822 ft | 479 kts | 134° |
| 2026-05-06 14:29 | -2.12136 | 37.98840 | 27015 ft | 480 kts | 134° |
| 2026-05-06 14:29 | -2.14504 | 38.01202 | 27185 ft | 482 kts | 134° |
| 2026-05-06 14:29 | -2.16881 | 38.03573 | 27347 ft | 484 kts | 134° |
| 2026-05-06 14:30 | -2.19269 | 38.05956 | 27508 ft | 486 kts | 134° |
| 2026-05-06 14:30 | -2.21665 | 38.08347 | 27676 ft | 487 kts | 134° |
| 2026-05-06 14:30 | -2.24066 | 38.10743 | 27833 ft | 489 kts | 134° |
| 2026-05-06 14:30 | -2.26476 | 38.13147 | 28001 ft | 490 kts | 134° |
| 2026-05-06 14:31 | -2.28889 | 38.15556 | 28230 ft | 490 kts | 134° |
| 2026-05-06 14:31 | -2.31263 | 38.17926 | 28475 ft | 489 kts | 134° |
| 2026-05-06 14:31 | -2.33667 | 38.20325 | 28708 ft | 488 kts | 134° |
| 2026-05-06 14:31 | -2.36074 | 38.22727 | 28917 ft | 489 kts | 134° |
| 2026-05-06 14:32 | -2.38484 | 38.25133 | 29122 ft | 489 kts | 134° |
| 2026-05-06 14:32 | -2.40887 | 38.27532 | 29356 ft | 488 kts | 134° |
| 2026-05-06 14:32 | -2.43284 | 38.29926 | 29587 ft | 488 kts | 134° |
| 2026-05-06 14:32 | -2.45689 | 38.32327 | 29789 ft | 488 kts | 135° |
| 2026-05-06 14:33 | -2.48088 | 38.34722 | 29993 ft | 488 kts | 135° |
| 2026-05-06 14:33 | -2.50488 | 38.37119 | 30195 ft | 487 kts | 135° |
| 2026-05-06 14:33 | -2.52879 | 38.39507 | 30409 ft | 486 kts | 134° |
| 2026-05-06 14:33 | -2.55267 | 38.41892 | 30614 ft | 485 kts | 134° |
| 2026-05-06 14:34 | -2.57649 | 38.44271 | 30821 ft | 483 kts | 134° |
| 2026-05-06 14:34 | -2.60024 | 38.46642 | 31042 ft | 482 kts | 134° |
| 2026-05-06 14:34 | -2.62396 | 38.49011 | 31243 ft | 481 kts | 134° |
| 2026-05-06 14:34 | -2.64761 | 38.51374 | 31428 ft | 480 kts | 134° |
| 2026-05-06 14:35 | -2.67122 | 38.53732 | 31618 ft | 480 kts | 134° |
| 2026-05-06 14:35 | -2.69480 | 38.56087 | 31814 ft | 479 kts | 134° |
| 2026-05-06 14:35 | -2.71833 | 38.58438 | 32018 ft | 477 kts | 134° |
| 2026-05-06 14:35 | -2.74182 | 38.60786 | 32208 ft | 476 kts | 134° |
| 2026-05-06 14:36 | -2.76526 | 38.63128 | 32375 ft | 476 kts | 134° |
| 2026-05-06 14:36 | -2.78866 | 38.65466 | 32544 ft | 476 kts | 134° |
| 2026-05-06 14:36 | -2.81204 | 38.67802 | 32726 ft | 475 kts | 134° |
| 2026-05-06 14:36 | -2.83540 | 38.70137 | 32874 ft | 475 kts | 134° |
| 2026-05-06 14:37 | -2.88241 | 38.74836 | 32895 ft | 481 kts | 134° |
| 2026-05-06 14:37 | -2.92990 | 38.79582 | 32906 ft | 484 kts | 134° |
| 2026-05-06 14:38 | -2.97773 | 38.84365 | 32900 ft | 487 kts | 134° |
| 2026-05-06 14:38 | -3.02578 | 38.89169 | 32898 ft | 489 kts | 134° |
| 2026-05-06 14:39 | -3.07370 | 38.93960 | 32893 ft | 491 kts | 134° |
| 2026-05-06 14:39 | -3.12205 | 38.98796 | 32890 ft | 491 kts | 134° |
| 2026-05-06 14:40 | -3.17040 | 39.03634 | 32892 ft | 492 kts | 134° |
| 2026-05-06 14:40 | -3.21884 | 39.08480 | 32890 ft | 492 kts | 134° |
| 2026-05-06 14:41 | -3.26749 | 39.13309 | 32891 ft | 493 kts | 135° |
| 2026-05-06 14:41 | -3.31712 | 39.18055 | 32896 ft | 493 kts | 135° |
| 2026-05-06 14:42 | -3.35845 | 39.21982 | 32896 ft | 493 kts | 135° |
| 2026-05-06 14:42 | -3.40810 | 39.26722 | 32894 ft | 493 kts | 135° |
| 2026-05-06 14:43 | -3.45768 | 39.31472 | 32894 ft | 493 kts | 135° |
| 2026-05-06 14:43 | -3.51526 | 39.36994 | 32899 ft | 493 kts | 135° |
| 2026-05-06 14:44 | -3.55677 | 39.40976 | 32895 ft | 493 kts | 135° |
| 2026-05-06 14:45 | -3.63105 | 39.48101 | 32895 ft | 493 kts | 135° |
| 2026-05-06 14:45 | -3.68055 | 39.52850 | 32893 ft | 493 kts | 135° |
| 2026-05-06 14:46 | -3.73007 | 39.57604 | 32888 ft | 493 kts | 135° |
| 2026-05-06 14:46 | -3.77928 | 39.62324 | 32892 ft | 493 kts | 135° |
| 2026-05-06 14:47 | -3.82893 | 39.67068 | 32888 ft | 493 kts | 135° |
| 2026-05-06 14:47 | -3.87862 | 39.71809 | 32886 ft | 493 kts | 135° |
| 2026-05-06 14:48 | -3.92830 | 39.76549 | 32889 ft | 493 kts | 135° |
| 2026-05-06 14:48 | -3.97796 | 39.81292 | 32893 ft | 493 kts | 135° |
| 2026-05-06 14:49 | -4.02755 | 39.86029 | 32896 ft | 493 kts | 135° |
| 2026-05-06 14:49 | -4.07713 | 39.90765 | 32902 ft | 492 kts | 135° |
| 2026-05-06 14:50 | -4.12665 | 39.95501 | 32909 ft | 492 kts | 135° |
| 2026-05-06 14:50 | -4.17609 | 40.00228 | 32913 ft | 491 kts | 135° |
| 2026-05-06 14:51 | -4.22550 | 40.04951 | 32914 ft | 491 kts | 135° |
| 2026-05-06 14:51 | -4.27459 | 40.09644 | 32914 ft | 491 kts | 135° |
| 2026-05-06 14:52 | -4.32394 | 40.14363 | 32915 ft | 490 kts | 135° |
| 2026-05-06 14:52 | -4.37327 | 40.19082 | 32918 ft | 490 kts | 135° |
| 2026-05-06 14:53 | -4.42255 | 40.23797 | 32913 ft | 490 kts | 135° |
| 2026-05-06 14:53 | -4.47183 | 40.28512 | 32918 ft | 490 kts | 135° |
| 2026-05-06 14:54 | -4.52110 | 40.33230 | 32915 ft | 490 kts | 135° |
| 2026-05-06 14:54 | -4.57034 | 40.37944 | 32917 ft | 489 kts | 135° |
| 2026-05-06 14:55 | -4.61957 | 40.42659 | 32921 ft | 489 kts | 135° |
| 2026-05-06 14:55 | -4.66878 | 40.47373 | 32920 ft | 489 kts | 135° |
| 2026-05-06 14:56 | -4.71811 | 40.52081 | 32916 ft | 489 kts | 135° |
| 2026-05-06 14:56 | -4.76744 | 40.56785 | 32920 ft | 489 kts | 135° |
| 2026-05-06 14:57 | -4.81673 | 40.61491 | 32917 ft | 489 kts | 135° |
| 2026-05-06 14:57 | -4.86338 | 40.66448 | 32926 ft | 488 kts | 130° |
| 2026-05-06 14:58 | -4.90826 | 40.71560 | 32919 ft | 488 kts | 130° |
| 2026-05-06 14:58 | -4.95310 | 40.76671 | 32920 ft | 488 kts | 130° |
| 2026-05-06 14:59 | -4.99822 | 40.81758 | 32916 ft | 488 kts | 131° |
| 2026-05-06 14:59 | -5.04345 | 40.86831 | 32916 ft | 488 kts | 131° |
| 2026-05-06 15:00 | -5.08870 | 40.91901 | 32923 ft | 488 kts | 131° |
| 2026-05-06 15:00 | -5.13363 | 40.96939 | 32919 ft | 488 kts | 131° |
| 2026-05-06 15:01 | -5.17882 | 41.02008 | 32916 ft | 488 kts | 131° |
| 2026-05-06 15:01 | -5.22402 | 41.07081 | 32921 ft | 488 kts | 131° |
| 2026-05-06 15:02 | -5.26924 | 41.12158 | 32918 ft | 488 kts | 130° |
| 2026-05-06 15:02 | -5.31447 | 41.17237 | 32924 ft | 488 kts | 130° |
| 2026-05-06 15:03 | -5.35969 | 41.22317 | 32923 ft | 488 kts | 131° |
| 2026-05-06 15:03 | -5.40495 | 41.27401 | 32916 ft | 488 kts | 131° |
| 2026-05-06 15:04 | -5.45021 | 41.32487 | 32916 ft | 489 kts | 131° |
| 2026-05-06 15:04 | -5.49553 | 41.37580 | 32919 ft | 489 kts | 131° |
| 2026-05-06 15:05 | -5.54090 | 41.42681 | 32922 ft | 490 kts | 131° |
| 2026-05-06 15:05 | -5.58601 | 41.47753 | 32922 ft | 490 kts | 131° |
| 2026-05-06 15:06 | -5.63145 | 41.52864 | 32921 ft | 491 kts | 131° |
| 2026-05-06 15:06 | -5.67693 | 41.57981 | 32925 ft | 491 kts | 131° |
| 2026-05-06 15:07 | -5.72246 | 41.63104 | 32922 ft | 492 kts | 131° |
| 2026-05-06 15:07 | -5.76803 | 41.68234 | 32923 ft | 492 kts | 131° |
| 2026-05-06 15:08 | -5.81360 | 41.73365 | 32922 ft | 492 kts | 131° |
| 2026-05-06 15:08 | -5.85919 | 41.78500 | 32920 ft | 493 kts | 131° |
| 2026-05-06 15:09 | -5.90478 | 41.83635 | 32924 ft | 493 kts | 131° |
| 2026-05-06 15:09 | -5.95043 | 41.88779 | 32921 ft | 493 kts | 131° |
| 2026-05-06 15:10 | -5.99605 | 41.93921 | 32921 ft | 493 kts | 131° |
| 2026-05-06 15:10 | -6.04138 | 41.99032 | 32921 ft | 493 kts | 131° |
| 2026-05-06 15:11 | -6.08702 | 42.04179 | 32917 ft | 493 kts | 131° |
| 2026-05-06 15:11 | -6.13271 | 42.09333 | 32919 ft | 494 kts | 131° |
| 2026-05-06 15:12 | -6.17838 | 42.14486 | 32924 ft | 494 kts | 131° |
| 2026-05-06 15:12 | -6.22409 | 42.19646 | 32924 ft | 494 kts | 131° |
| 2026-05-06 15:13 | -6.26979 | 42.24805 | 32923 ft | 494 kts | 131° |
| 2026-05-06 15:13 | -6.31545 | 42.29962 | 32923 ft | 494 kts | 131° |
| 2026-05-06 15:14 | -6.36117 | 42.35126 | 32922 ft | 494 kts | 131° |
| 2026-05-06 15:14 | -6.40682 | 42.40285 | 32920 ft | 494 kts | 131° |
| 2026-05-06 15:15 | -6.45246 | 42.45445 | 32921 ft | 494 kts | 131° |
| 2026-05-06 15:15 | -6.49812 | 42.50607 | 32923 ft | 494 kts | 131° |
| 2026-05-06 15:16 | -6.54345 | 42.55734 | 32923 ft | 494 kts | 131° |
| 2026-05-06 15:16 | -6.58907 | 42.60895 | 32923 ft | 494 kts | 131° |
| 2026-05-06 15:17 | -6.63470 | 42.66059 | 32918 ft | 494 kts | 131° |
| 2026-05-06 15:17 | -6.68027 | 42.71218 | 32922 ft | 494 kts | 131° |
| 2026-05-06 15:18 | -6.72587 | 42.76380 | 32921 ft | 493 kts | 131° |
| 2026-05-06 15:18 | -6.77146 | 42.81544 | 32923 ft | 493 kts | 131° |
| 2026-05-06 15:19 | -6.81699 | 42.86704 | 32923 ft | 493 kts | 131° |
| 2026-05-06 15:19 | -6.86253 | 42.91865 | 32920 ft | 493 kts | 131° |
| 2026-05-06 15:20 | -6.90805 | 42.97026 | 32925 ft | 493 kts | 131° |
| 2026-05-06 15:20 | -6.95356 | 43.02188 | 32926 ft | 493 kts | 131° |
| 2026-05-06 15:21 | -6.99906 | 43.07350 | 32919 ft | 493 kts | 131° |
| 2026-05-06 15:21 | -7.04451 | 43.12507 | 32921 ft | 493 kts | 131° |
| 2026-05-06 15:22 | -7.08998 | 43.17669 | 32926 ft | 492 kts | 131° |
| 2026-05-06 15:22 | -7.13545 | 43.22832 | 32922 ft | 493 kts | 131° |
| 2026-05-06 15:23 | -7.18058 | 43.27959 | 32920 ft | 493 kts | 131° |
| 2026-05-06 15:23 | -7.22608 | 43.33129 | 32920 ft | 493 kts | 131° |
| 2026-05-06 15:24 | -7.27151 | 43.38293 | 32922 ft | 493 kts | 131° |
| 2026-05-06 15:24 | -7.31700 | 43.43466 | 32923 ft | 493 kts | 131° |
| 2026-05-06 15:25 | -7.36248 | 43.48640 | 32923 ft | 493 kts | 131° |
| 2026-05-06 15:25 | -7.40797 | 43.53816 | 32920 ft | 493 kts | 131° |
| 2026-05-06 15:26 | -7.45345 | 43.58992 | 32921 ft | 493 kts | 131° |
| 2026-05-06 15:26 | -7.49896 | 43.64174 | 32925 ft | 493 kts | 131° |
| 2026-05-06 15:27 | -7.54441 | 43.69351 | 32920 ft | 494 kts | 131° |
| 2026-05-06 15:27 | -7.58992 | 43.74536 | 32919 ft | 494 kts | 131° |
| 2026-05-06 15:28 | -7.63511 | 43.79687 | 32920 ft | 494 kts | 131° |
| 2026-05-06 15:28 | -7.68060 | 43.84875 | 32920 ft | 494 kts | 131° |
| 2026-05-06 15:29 | -7.72610 | 43.90065 | 32922 ft | 494 kts | 131° |
| 2026-05-06 15:29 | -7.77161 | 43.95259 | 32919 ft | 494 kts | 131° |
| 2026-05-06 15:30 | -7.81711 | 44.00452 | 32922 ft | 494 kts | 131° |
| 2026-05-06 15:30 | -7.86297 | 44.05622 | 32922 ft | 494 kts | 132° |
| 2026-05-06 15:31 | -7.90902 | 44.10774 | 32923 ft | 495 kts | 132° |
| 2026-05-06 15:31 | -7.95509 | 44.15935 | 32925 ft | 495 kts | 132° |
| 2026-05-06 15:32 | -8.02413 | 44.23689 | 32923 ft | 495 kts | 132° |
| 2026-05-06 15:32 | -8.07013 | 44.28862 | 32922 ft | 495 kts | 132° |
| 2026-05-06 15:33 | -8.11612 | 44.34034 | 32924 ft | 495 kts | 132° |
| 2026-05-06 15:33 | -8.15438 | 44.38338 | 32922 ft | 496 kts | 132° |
| 2026-05-06 15:34 | -8.20041 | 44.43519 | 32921 ft | 496 kts | 132° |
| 2026-05-06 15:34 | -8.24645 | 44.48703 | 32921 ft | 496 kts | 132° |
| 2026-05-06 15:35 | -8.29251 | 44.53889 | 32921 ft | 496 kts | 132° |
| 2026-05-06 15:35 | -8.33855 | 44.59077 | 32924 ft | 496 kts | 132° |
| 2026-05-06 15:36 | -8.38458 | 44.64265 | 32922 ft | 496 kts | 132° |
| 2026-05-06 15:36 | -8.43064 | 44.69458 | 32925 ft | 496 kts | 132° |
| 2026-05-06 15:37 | -8.47672 | 44.74656 | 32924 ft | 496 kts | 132° |
| 2026-05-06 15:37 | -8.52277 | 44.79852 | 32922 ft | 497 kts | 132° |
| 2026-05-06 15:38 | -8.56884 | 44.85053 | 32923 ft | 497 kts | 132° |
| 2026-05-06 15:38 | -8.61461 | 44.90222 | 32921 ft | 497 kts | 132° |
| 2026-05-06 15:39 | -8.66068 | 44.95427 | 32926 ft | 497 kts | 132° |
| 2026-05-06 15:39 | -8.70679 | 45.00638 | 32928 ft | 497 kts | 132° |
| 2026-05-06 15:40 | -8.75284 | 45.05845 | 32924 ft | 497 kts | 132° |
| 2026-05-06 15:40 | -8.79892 | 45.11056 | 32924 ft | 497 kts | 132° |
| 2026-05-06 15:41 | -8.84501 | 45.16272 | 32926 ft | 497 kts | 132° |
| 2026-05-06 15:41 | -8.89109 | 45.21488 | 32926 ft | 497 kts | 133° |
| 2026-05-06 15:42 | -8.93720 | 45.26710 | 32930 ft | 497 kts | 132° |
| 2026-05-06 15:42 | -8.98328 | 45.31931 | 32927 ft | 498 kts | 132° |
| 2026-05-06 15:43 | -9.02939 | 45.37157 | 32929 ft | 498 kts | 132° |
| 2026-05-06 15:43 | -9.07548 | 45.42383 | 32930 ft | 498 kts | 133° |
| 2026-05-06 15:44 | -9.12157 | 45.47611 | 32926 ft | 498 kts | 132° |
| 2026-05-06 15:44 | -9.16766 | 45.52842 | 32928 ft | 498 kts | 132° |
| 2026-05-06 15:45 | -9.21376 | 45.58076 | 32931 ft | 498 kts | 133° |
| 2026-05-06 15:45 | -9.25984 | 45.63309 | 32932 ft | 498 kts | 132° |
| 2026-05-06 15:46 | -9.30585 | 45.68539 | 32933 ft | 498 kts | 133° |
| 2026-05-06 15:46 | -9.35165 | 45.73744 | 32932 ft | 498 kts | 133° |
| 2026-05-06 15:47 | -9.39766 | 45.78977 | 32936 ft | 498 kts | 133° |
| 2026-05-06 15:47 | -9.44368 | 45.84213 | 32934 ft | 498 kts | 133° |
| 2026-05-06 15:48 | -9.48976 | 45.89458 | 32939 ft | 498 kts | 133° |
| 2026-05-06 15:48 | -9.53578 | 45.94699 | 32932 ft | 498 kts | 133° |
| 2026-05-06 15:49 | -9.58180 | 45.99942 | 32937 ft | 498 kts | 133° |
| 2026-05-06 15:49 | -9.62788 | 46.05193 | 32937 ft | 498 kts | 133° |
| 2026-05-06 15:50 | -9.67389 | 46.10439 | 32934 ft | 498 kts | 133° |
| 2026-05-06 15:50 | -9.71993 | 46.15692 | 32935 ft | 498 kts | 133° |
| 2026-05-06 15:51 | -9.76598 | 46.20948 | 32937 ft | 498 kts | 133° |
| 2026-05-06 15:51 | -9.81199 | 46.26202 | 32940 ft | 498 kts | 133° |
| 2026-05-06 15:52 | -9.85805 | 46.31464 | 32934 ft | 498 kts | 133° |
| 2026-05-06 15:52 | -9.90408 | 46.36726 | 32932 ft | 499 kts | 133° |
| 2026-05-06 15:53 | -9.94979 | 46.41954 | 32936 ft | 499 kts | 133° |
| 2026-05-06 15:53 | -9.99579 | 46.47215 | 32936 ft | 499 kts | 133° |
| 2026-05-06 15:54 | -10.04142 | 46.52533 | 32936 ft | 499 kts | 132° |
| 2026-05-06 15:54 | -10.08648 | 46.57888 | 32936 ft | 499 kts | 131° |
| 2026-05-06 15:55 | -10.13156 | 46.63247 | 32938 ft | 499 kts | 132° |
| 2026-05-06 15:55 | -10.17672 | 46.68602 | 32936 ft | 499 kts | 132° |
| 2026-05-06 15:56 | -10.22194 | 46.73958 | 32938 ft | 499 kts | 132° |
| 2026-05-06 15:56 | -10.26717 | 46.79317 | 32939 ft | 500 kts | 132° |
| 2026-05-06 15:57 | -10.31237 | 46.84676 | 32938 ft | 500 kts | 132° |
| 2026-05-06 15:57 | -10.35757 | 46.90038 | 32938 ft | 500 kts | 132° |
| 2026-05-06 15:58 | -10.40279 | 46.95405 | 32938 ft | 500 kts | 132° |
| 2026-05-06 15:58 | -10.44803 | 47.00776 | 32936 ft | 500 kts | 132° |
| 2026-05-06 15:59 | -10.49321 | 47.06144 | 32942 ft | 500 kts | 132° |
| 2026-05-06 15:59 | -10.53838 | 47.11512 | 32939 ft | 500 kts | 132° |
| 2026-05-06 16:00 | -10.58359 | 47.16888 | 32936 ft | 500 kts | 132° |
| 2026-05-06 16:00 | -10.62874 | 47.22260 | 32934 ft | 500 kts | 132° |
| 2026-05-06 16:01 | -10.67396 | 47.27642 | 32939 ft | 500 kts | 132° |
| 2026-05-06 16:01 | -10.71910 | 47.33019 | 32939 ft | 500 kts | 132° |
| 2026-05-06 16:02 | -10.76423 | 47.38397 | 32938 ft | 500 kts | 132° |
| 2026-05-06 16:02 | -10.80931 | 47.43772 | 32943 ft | 500 kts | 132° |
| 2026-05-06 16:03 | -10.85409 | 47.49114 | 32941 ft | 500 kts | 132° |
| 2026-05-06 16:03 | -10.89951 | 47.54534 | 32939 ft | 500 kts | 132° |
| 2026-05-06 16:04 | -10.94457 | 47.59915 | 32942 ft | 500 kts | 132° |
| 2026-05-06 16:04 | -10.98929 | 47.65260 | 32939 ft | 500 kts | 132° |
| 2026-05-06 16:05 | -11.03437 | 47.70654 | 32940 ft | 499 kts | 132° |
| 2026-05-06 16:05 | -11.07932 | 47.76036 | 32941 ft | 499 kts | 132° |
| 2026-05-06 16:06 | -11.12432 | 47.81427 | 32940 ft | 499 kts | 132° |
| 2026-05-06 16:06 | -11.16932 | 47.86820 | 32944 ft | 499 kts | 132° |
| 2026-05-06 16:07 | -11.21431 | 47.92215 | 32938 ft | 499 kts | 132° |
| 2026-05-06 16:07 | -11.25924 | 47.97605 | 32939 ft | 499 kts | 132° |
| 2026-05-06 16:08 | -11.30421 | 48.03003 | 32936 ft | 499 kts | 132° |
| 2026-05-06 16:08 | -11.34917 | 48.08403 | 32939 ft | 499 kts | 132° |
| 2026-05-06 16:09 | -11.39408 | 48.13799 | 32939 ft | 500 kts | 132° |
| 2026-05-06 16:09 | -11.43903 | 48.19205 | 32938 ft | 500 kts | 132° |
| 2026-05-06 16:10 | -11.48366 | 48.24573 | 32939 ft | 500 kts | 132° |
| 2026-05-06 16:10 | -11.52859 | 48.29982 | 32938 ft | 500 kts | 132° |
| 2026-05-06 16:11 | -11.57351 | 48.35391 | 32935 ft | 500 kts | 132° |
| 2026-05-06 16:11 | -11.61846 | 48.40806 | 32934 ft | 500 kts | 132° |
| 2026-05-06 16:12 | -11.66332 | 48.46215 | 32935 ft | 500 kts | 132° |
| 2026-05-06 16:12 | -11.70821 | 48.51630 | 32935 ft | 500 kts | 132° |
| 2026-05-06 16:13 | -11.75312 | 48.57051 | 32934 ft | 500 kts | 132° |
| 2026-05-06 16:13 | -11.79805 | 48.62476 | 32935 ft | 500 kts | 132° |
| 2026-05-06 16:14 | -11.84297 | 48.67903 | 32936 ft | 500 kts | 132° |
| 2026-05-06 16:14 | -11.88789 | 48.73335 | 32939 ft | 500 kts | 132° |
| 2026-05-06 16:15 | -11.93276 | 48.78762 | 32935 ft | 501 kts | 132° |
| 2026-05-06 16:15 | -11.97767 | 48.84197 | 32941 ft | 501 kts | 132° |
| 2026-05-06 16:16 | -12.02228 | 48.89599 | 32941 ft | 501 kts | 132° |
| 2026-05-06 16:16 | -12.06718 | 48.95040 | 32943 ft | 501 kts | 132° |
| 2026-05-06 16:17 | -12.11211 | 49.00488 | 32941 ft | 501 kts | 131° |
| 2026-05-06 16:17 | -12.15701 | 49.05935 | 32942 ft | 501 kts | 131° |
| 2026-05-06 16:18 | -12.20185 | 49.11377 | 32944 ft | 501 kts | 131° |
| 2026-05-06 16:18 | -12.24670 | 49.16825 | 32940 ft | 501 kts | 131° |
| 2026-05-06 16:19 | -12.29152 | 49.22272 | 32939 ft | 501 kts | 131° |
| 2026-05-06 16:19 | -12.33636 | 49.27725 | 32941 ft | 501 kts | 131° |
| 2026-05-06 16:20 | -12.38420 | 49.32887 | 32945 ft | 499 kts | 138° |
| 2026-05-06 16:20 | -12.43485 | 49.37753 | 32943 ft | 499 kts | 139° |
| 2026-05-06 16:21 | -12.48552 | 49.42609 | 32946 ft | 499 kts | 138° |
| 2026-05-06 16:21 | -12.53590 | 49.47516 | 32953 ft | 500 kts | 138° |
| 2026-05-06 16:22 | -12.57757 | 49.51610 | 32956 ft | 500 kts | 137° |
| 2026-05-06 16:22 | -12.63574 | 49.57337 | 32958 ft | 499 kts | 138° |
| 2026-05-06 16:23 | -12.68584 | 49.62268 | 32958 ft | 499 kts | 138° |
| 2026-05-06 16:23 | -12.72776 | 49.66394 | 32956 ft | 499 kts | 137° |
| 2026-05-06 16:24 | -12.77785 | 49.71324 | 32960 ft | 499 kts | 138° |
| 2026-05-06 16:24 | -12.82784 | 49.76251 | 32959 ft | 499 kts | 138° |
| 2026-05-06 16:25 | -12.87789 | 49.81185 | 32961 ft | 499 kts | 138° |
| 2026-05-06 16:25 | -12.92756 | 49.86086 | 32960 ft | 499 kts | 137° |
| 2026-05-06 16:26 | -12.97761 | 49.91027 | 32965 ft | 499 kts | 138° |
| 2026-05-06 16:26 | -13.02763 | 49.95967 | 32963 ft | 499 kts | 138° |
| 2026-05-06 16:27 | -13.07761 | 50.00903 | 32967 ft | 499 kts | 138° |
| 2026-05-06 16:27 | -13.12764 | 50.05848 | 32968 ft | 499 kts | 137° |
| 2026-05-06 16:28 | -13.17765 | 50.10802 | 32968 ft | 499 kts | 138° |
| 2026-05-06 16:28 | -13.22768 | 50.15755 | 32972 ft | 500 kts | 138° |
| 2026-05-06 16:29 | -13.27774 | 50.20713 | 32970 ft | 500 kts | 138° |
| 2026-05-06 16:29 | -13.32779 | 50.25670 | 32972 ft | 499 kts | 138° |
| 2026-05-06 16:30 | -13.36933 | 50.29790 | 32973 ft | 499 kts | 138° |
| 2026-05-06 16:30 | -13.42774 | 50.35589 | 32972 ft | 499 kts | 138° |
| 2026-05-06 16:31 | -13.47768 | 50.40548 | 32978 ft | 499 kts | 138° |
| 2026-05-06 16:31 | -13.52762 | 50.45511 | 32977 ft | 499 kts | 138° |
| 2026-05-06 16:32 | -13.57720 | 50.50442 | 32981 ft | 499 kts | 138° |
| 2026-05-06 16:32 | -13.62708 | 50.55405 | 32978 ft | 499 kts | 138° |
| 2026-05-06 16:33 | -13.67708 | 50.60373 | 32980 ft | 499 kts | 138° |
| 2026-05-06 16:34 | -13.75204 | 50.67823 | 32984 ft | 500 kts | 138° |
| 2026-05-06 16:34 | -13.80199 | 50.72793 | 32985 ft | 500 kts | 138° |
| 2026-05-06 16:35 | -13.85196 | 50.77769 | 32980 ft | 500 kts | 138° |
| 2026-05-06 16:35 | -13.90198 | 50.82754 | 32985 ft | 500 kts | 138° |
| 2026-05-06 16:36 | -13.95194 | 50.87735 | 32984 ft | 500 kts | 138° |
| 2026-05-06 16:36 | -14.00196 | 50.92725 | 32985 ft | 500 kts | 138° |
| 2026-05-06 16:37 | -14.05193 | 50.97715 | 32984 ft | 501 kts | 138° |
| 2026-05-06 16:37 | -14.10195 | 51.02712 | 32988 ft | 501 kts | 137° |
| 2026-05-06 16:38 | -14.15193 | 51.07709 | 32983 ft | 501 kts | 138° |
| 2026-05-06 16:38 | -14.20190 | 51.12707 | 32987 ft | 501 kts | 137° |
| 2026-05-06 16:39 | -14.25192 | 51.17715 | 32982 ft | 501 kts | 137° |
| 2026-05-06 16:39 | -14.30188 | 51.22719 | 32983 ft | 501 kts | 137° |
| 2026-05-06 16:40 | -14.35177 | 51.27719 | 32984 ft | 501 kts | 137° |
| 2026-05-06 16:40 | -14.40177 | 51.32734 | 32989 ft | 501 kts | 137° |
| 2026-05-06 16:41 | -14.45137 | 51.37713 | 32986 ft | 501 kts | 137° |
| 2026-05-06 16:41 | -14.50127 | 51.42725 | 32986 ft | 501 kts | 137° |
| 2026-05-06 16:42 | -14.55118 | 51.47743 | 32984 ft | 501 kts | 137° |
| 2026-05-06 16:42 | -14.60102 | 51.52762 | 32989 ft | 501 kts | 137° |
| 2026-05-06 16:43 | -14.65088 | 51.57786 | 32988 ft | 501 kts | 137° |
| 2026-05-06 16:43 | -14.70072 | 51.62813 | 32989 ft | 501 kts | 137° |
| 2026-05-06 16:44 | -14.75060 | 51.67847 | 32989 ft | 501 kts | 137° |
| 2026-05-06 16:44 | -14.80042 | 51.72877 | 32991 ft | 501 kts | 137° |
| 2026-05-06 16:45 | -14.85024 | 51.77912 | 32988 ft | 501 kts | 137° |
| 2026-05-06 16:45 | -14.90008 | 51.82951 | 32989 ft | 501 kts | 137° |
| 2026-05-06 16:46 | -14.94994 | 51.87997 | 32990 ft | 501 kts | 137° |
| 2026-05-06 16:46 | -14.99981 | 51.93046 | 32993 ft | 501 kts | 137° |
| 2026-05-06 16:47 | -15.04965 | 51.98097 | 32989 ft | 502 kts | 137° |
| 2026-05-06 16:47 | -15.09947 | 52.03148 | 32996 ft | 502 kts | 137° |
| 2026-05-06 16:48 | -15.14904 | 52.08178 | 32993 ft | 502 kts | 137° |
| 2026-05-06 16:48 | -15.19888 | 52.13239 | 32996 ft | 502 kts | 137° |
| 2026-05-06 16:49 | -15.24871 | 52.18302 | 32995 ft | 502 kts | 137° |
| 2026-05-06 16:49 | -15.29867 | 52.23382 | 32995 ft | 502 kts | 137° |
| 2026-05-06 16:50 | -15.34852 | 52.28454 | 32998 ft | 502 kts | 137° |
| 2026-05-06 16:50 | -15.39834 | 52.33526 | 32997 ft | 503 kts | 137° |
| 2026-05-06 16:51 | -15.44817 | 52.38604 | 32993 ft | 503 kts | 137° |
| 2026-05-06 16:51 | -15.49805 | 52.43691 | 33000 ft | 503 kts | 137° |
| 2026-05-06 16:52 | -15.54803 | 52.48790 | 33001 ft | 503 kts | 137° |
| 2026-05-06 16:52 | -15.59793 | 52.53886 | 33001 ft | 504 kts | 137° |
| 2026-05-06 16:53 | -15.64779 | 52.58982 | 32999 ft | 504 kts | 137° |
| 2026-05-06 16:53 | -15.69743 | 52.64057 | 33004 ft | 504 kts | 137° |
| 2026-05-06 16:54 | -15.74737 | 52.69169 | 33001 ft | 504 kts | 138° |
| 2026-05-06 16:54 | -15.79737 | 52.74290 | 33005 ft | 505 kts | 138° |
| 2026-05-06 16:55 | -15.84736 | 52.79413 | 33003 ft | 505 kts | 138° |
| 2026-05-06 16:55 | -15.89741 | 52.84546 | 33005 ft | 505 kts | 138° |
| 2026-05-06 16:56 | -15.94742 | 52.89679 | 33007 ft | 506 kts | 138° |
| 2026-05-06 16:56 | -15.99749 | 52.94822 | 33007 ft | 506 kts | 138° |
| 2026-05-06 16:57 | -16.04761 | 52.99974 | 33007 ft | 507 kts | 138° |
| 2026-05-06 16:57 | -16.09775 | 53.05132 | 33010 ft | 507 kts | 138° |
| 2026-05-06 16:58 | -16.14782 | 53.10287 | 33009 ft | 507 kts | 138° |
| 2026-05-06 16:58 | -16.19802 | 53.15459 | 33010 ft | 508 kts | 138° |
| 2026-05-06 16:59 | -16.24827 | 53.20641 | 33008 ft | 508 kts | 138° |
| 2026-05-06 16:59 | -16.29846 | 53.25820 | 33009 ft | 508 kts | 138° |
| 2026-05-06 17:00 | -16.34865 | 53.31004 | 33011 ft | 509 kts | 138° |
| 2026-05-06 17:00 | -16.39856 | 53.36161 | 33014 ft | 509 kts | 138° |
| 2026-05-06 17:01 | -16.44883 | 53.41356 | 33011 ft | 509 kts | 138° |
| 2026-05-06 17:01 | -16.49920 | 53.46564 | 33015 ft | 510 kts | 138° |
| 2026-05-06 17:02 | -16.54947 | 53.51766 | 33008 ft | 510 kts | 137° |
| 2026-05-06 17:02 | -16.59983 | 53.56986 | 33020 ft | 510 kts | 138° |
| 2026-05-06 17:03 | -16.65017 | 53.62205 | 33020 ft | 510 kts | 138° |
| 2026-05-06 17:03 | -16.70052 | 53.67428 | 33015 ft | 511 kts | 137° |
| 2026-05-06 17:04 | -16.75089 | 53.72659 | 33018 ft | 511 kts | 137° |
| 2026-05-06 17:04 | -16.80090 | 53.77854 | 33024 ft | 502 kts | 136° |
| 2026-05-06 17:05 | -16.84968 | 53.82929 | 33007 ft | 495 kts | 136° |
| 2026-05-06 17:05 | -16.89815 | 53.87976 | 33018 ft | 490 kts | 136° |
| 2026-05-06 17:06 | -16.94624 | 53.92987 | 33021 ft | 487 kts | 136° |
| 2026-05-06 17:06 | -16.99408 | 53.97973 | 33021 ft | 485 kts | 136° |
| 2026-05-06 17:07 | -17.04182 | 54.02954 | 33020 ft | 484 kts | 136° |
| 2026-05-06 17:07 | -17.08946 | 54.07928 | 33019 ft | 484 kts | 136° |
| 2026-05-06 17:08 | -17.13703 | 54.12898 | 33026 ft | 483 kts | 136° |
| 2026-05-06 17:08 | -17.18457 | 54.17869 | 33024 ft | 483 kts | 136° |
| 2026-05-06 17:09 | -17.23206 | 54.22838 | 33021 ft | 483 kts | 136° |
| 2026-05-06 17:09 | -17.27950 | 54.27807 | 33022 ft | 483 kts | 135° |
| 2026-05-06 17:10 | -17.32691 | 54.32776 | 33017 ft | 482 kts | 135° |
| 2026-05-06 17:10 | -17.36629 | 54.36906 | 33027 ft | 482 kts | 135° |
| 2026-05-06 17:11 | -17.41362 | 54.41875 | 33027 ft | 482 kts | 135° |
| 2026-05-06 17:11 | -17.46093 | 54.46844 | 33035 ft | 482 kts | 135° |
| 2026-05-06 17:12 | -17.50827 | 54.51821 | 33022 ft | 482 kts | 135° |
| 2026-05-06 17:12 | -17.55560 | 54.56801 | 33025 ft | 482 kts | 135° |
| 2026-05-06 17:13 | -17.60286 | 54.61776 | 33022 ft | 481 kts | 135° |
| 2026-05-06 17:13 | -17.65006 | 54.66750 | 33036 ft | 481 kts | 135° |
| 2026-05-06 17:14 | -17.69724 | 54.71725 | 33043 ft | 481 kts | 135° |
| 2026-05-06 17:14 | -17.74441 | 54.76704 | 33030 ft | 481 kts | 135° |
| 2026-05-06 17:15 | -17.79149 | 54.81676 | 33031 ft | 480 kts | 135° |
| 2026-05-06 17:15 | -17.83830 | 54.86625 | 33030 ft | 480 kts | 135° |
| 2026-05-06 17:16 | -17.88568 | 54.91637 | 33025 ft | 480 kts | 135° |
| 2026-05-06 17:16 | -17.93239 | 54.96582 | 33037 ft | 480 kts | 135° |
| 2026-05-06 17:17 | -17.97935 | 55.01559 | 33031 ft | 480 kts | 135° |
| 2026-05-06 17:17 | -18.02630 | 55.06538 | 33035 ft | 480 kts | 135° |
| 2026-05-06 17:18 | -18.07325 | 55.11521 | 33033 ft | 480 kts | 135° |
| 2026-05-06 17:18 | -18.12021 | 55.16509 | 33039 ft | 479 kts | 135° |
| 2026-05-06 17:19 | -18.16708 | 55.21492 | 33036 ft | 479 kts | 135° |
| 2026-05-06 17:19 | -18.21396 | 55.26479 | 33031 ft | 479 kts | 135° |
| 2026-05-06 17:20 | -18.26078 | 55.31465 | 33035 ft | 479 kts | 135° |
| 2026-05-06 17:20 | -18.30758 | 55.36453 | 33037 ft | 479 kts | 135° |
| 2026-05-06 17:21 | -18.35434 | 55.41445 | 33037 ft | 479 kts | 135° |
| 2026-05-06 17:21 | -18.40104 | 55.46462 | 33034 ft | 479 kts | 135° |
| 2026-05-06 17:22 | -18.44729 | 55.51440 | 33035 ft | 479 kts | 135° |
| 2026-05-06 17:22 | -18.49401 | 55.56456 | 33032 ft | 479 kts | 135° |
| 2026-05-06 17:23 | -18.54219 | 55.61298 | 33041 ft | 479 kts | 137° |
| 2026-05-06 17:23 | -18.59109 | 55.66066 | 33044 ft | 479 kts | 137° |
| 2026-05-06 17:24 | -18.63990 | 55.70858 | 33043 ft | 479 kts | 137° |
| 2026-05-06 17:24 | -18.68843 | 55.75666 | 33043 ft | 479 kts | 137° |
| 2026-05-06 17:25 | -18.73692 | 55.80488 | 33047 ft | 479 kts | 137° |
| 2026-05-06 17:25 | -18.78543 | 55.85317 | 33042 ft | 479 kts | 137° |
| 2026-05-06 17:26 | -18.83386 | 55.90140 | 33044 ft | 479 kts | 137° |
| 2026-05-06 17:26 | -18.88229 | 55.94967 | 33043 ft | 479 kts | 137° |
| 2026-05-06 17:27 | -18.93035 | 55.99760 | 33047 ft | 479 kts | 137° |
| 2026-05-06 17:27 | -18.97881 | 56.04598 | 33044 ft | 479 kts | 137° |
| 2026-05-06 17:28 | -19.02718 | 56.09430 | 33046 ft | 479 kts | 137° |
| 2026-05-06 17:28 | -19.07562 | 56.14273 | 33049 ft | 479 kts | 137° |
| 2026-05-06 17:29 | -19.12398 | 56.19112 | 33048 ft | 479 kts | 137° |
| 2026-05-06 17:29 | -19.17237 | 56.23959 | 33048 ft | 479 kts | 137° |
| 2026-05-06 17:30 | -19.22065 | 56.28799 | 33053 ft | 479 kts | 137° |
| 2026-05-06 17:30 | -19.26903 | 56.33653 | 33052 ft | 479 kts | 137° |
| 2026-05-06 17:31 | -19.31730 | 56.38500 | 33052 ft | 479 kts | 137° |
| 2026-05-06 17:31 | -19.36559 | 56.43354 | 33058 ft | 479 kts | 137° |
| 2026-05-06 17:32 | -19.41387 | 56.48210 | 33060 ft | 479 kts | 137° |
| 2026-05-06 17:32 | -19.46183 | 56.53038 | 33058 ft | 479 kts | 137° |
| 2026-05-06 17:33 | -19.51010 | 56.57902 | 33055 ft | 479 kts | 137° |
| 2026-05-06 17:33 | -19.55836 | 56.62769 | 33057 ft | 479 kts | 136° |
| 2026-05-06 17:34 | -19.60657 | 56.67635 | 33057 ft | 476 kts | 136° |
| 2026-05-06 17:34 | -19.65386 | 56.72413 | 33000 ft | 464 kts | 137° |
| 2026-05-06 17:34 | -19.67726 | 56.74778 | 32609 ft | 467 kts | 136° |
| 2026-05-06 17:35 | -19.70084 | 56.77151 | 32283 ft | 467 kts | 139° |
| 2026-05-06 17:35 | -19.72768 | 56.79100 | 31920 ft | 469 kts | 154° |
| 2026-05-06 17:35 | -19.75861 | 56.80171 | 31607 ft | 471 kts | 169° |
| 2026-05-06 17:36 | -19.82415 | 56.79549 | 30194 ft | 495 kts | 199° |
| 2026-05-06 17:36 | -19.85436 | 56.77819 | 29388 ft | 487 kts | 215° |
| 2026-05-06 17:36 | -19.87764 | 56.75327 | 29188 ft | 466 kts | 232° |
| 2026-05-06 17:36 | -19.89289 | 56.72384 | 28808 ft | 450 kts | 246° |
| 2026-05-06 17:37 | -19.90159 | 56.69158 | 27467 ft | 458 kts | 257° |
| 2026-05-06 17:37 | -19.90717 | 56.65835 | 26292 ft | 458 kts | 259° |
| 2026-05-06 17:37 | -19.91169 | 56.62492 | 25143 ft | 458 kts | 265° |
| 2026-05-06 17:37 | -19.90939 | 56.59121 | 24025 ft | 458 kts | 282° |
| 2026-05-06 17:38 | -19.89831 | 56.55966 | 23085 ft | 451 kts | 295° |
| 2026-05-06 17:38 | -19.88865 | 56.52923 | 22857 ft | 426 kts | 276° |
| 2026-05-06 17:38 | -19.89020 | 56.49813 | 22619 ft | 426 kts | 253° |
| 2026-05-06 17:38 | -19.90272 | 56.46972 | 22380 ft | 429 kts | 231° |
| 2026-05-06 17:39 | -19.92445 | 56.44814 | 22140 ft | 430 kts | 210° |
| 2026-05-06 17:39 | -19.95222 | 56.43663 | 21893 ft | 431 kts | 189° |
| 2026-05-06 17:39 | -19.98214 | 56.43399 | 21678 ft | 430 kts | 180° |
| 2026-05-06 17:39 | -20.01199 | 56.43534 | 21429 ft | 431 kts | 173° |
| 2026-05-06 17:40 | -20.04156 | 56.44078 | 21178 ft | 431 kts | 165° |
| 2026-05-06 17:40 | -20.06943 | 56.45190 | 20915 ft | 427 kts | 151° |
| 2026-05-06 17:40 | -20.09316 | 56.47006 | 20682 ft | 427 kts | 135° |
| 2026-05-06 17:40 | -20.11126 | 56.49467 | 20256 ft | 419 kts | 121° |
| 2026-05-06 17:41 | -20.12274 | 56.52272 | 19638 ft | 409 kts | 106° |
| 2026-05-06 17:41 | -20.12777 | 56.55206 | 19058 ft | 399 kts | 98° |
| 2026-05-06 17:41 | -20.13081 | 56.58122 | 18425 ft | 395 kts | 96° |
| 2026-05-06 17:41 | -20.13338 | 56.61013 | 17734 ft | 389 kts | 96° |
| 2026-05-06 17:42 | -20.13590 | 56.63906 | 17117 ft | 389 kts | 96° |
| 2026-05-06 17:42 | -20.13850 | 56.66767 | 16521 ft | 400 kts | 96° |
| 2026-05-06 17:42 | -20.14128 | 56.69705 | 15874 ft | 396 kts | 96° |
| 2026-05-06 17:42 | -20.14409 | 56.72582 | 15262 ft | 385 kts | 96° |
| 2026-05-06 17:43 | -20.14687 | 56.75383 | 14648 ft | 376 kts | 96° |
| 2026-05-06 17:43 | -20.14962 | 56.78118 | 14057 ft | 368 kts | 96° |
| 2026-05-06 17:43 | -20.15232 | 56.80801 | 13429 ft | 363 kts | 96° |
| 2026-05-06 17:43 | -20.15500 | 56.83455 | 12839 ft | 358 kts | 96° |
| 2026-05-06 17:44 | -20.15764 | 56.86078 | 12259 ft | 356 kts | 96° |
| 2026-05-06 17:44 | -20.16031 | 56.88728 | 11698 ft | 365 kts | 97° |
| 2026-05-06 17:44 | -20.16302 | 56.91427 | 11137 ft | 366 kts | 97° |
| 2026-05-06 17:44 | -20.16564 | 56.94047 | 10962 ft | 346 kts | 97° |
| 2026-05-06 17:45 | -20.16810 | 56.96521 | 10800 ft | 327 kts | 97° |
| 2026-05-06 17:45 | -20.17043 | 56.98861 | 10655 ft | 310 kts | 97° |
| 2026-05-06 17:45 | -20.17266 | 57.01095 | 10530 ft | 298 kts | 97° |
| 2026-05-06 17:45 | -20.17481 | 57.03256 | 10414 ft | 290 kts | 97° |
| 2026-05-06 17:46 | -20.17693 | 57.05378 | 10307 ft | 288 kts | 97° |
| 2026-05-06 17:46 | -20.17904 | 57.07500 | 10190 ft | 286 kts | 97° |
| 2026-05-06 17:46 | -20.18109 | 57.09566 | 10032 ft | 276 kts | 97° |
| 2026-05-06 17:46 | -20.18308 | 57.11577 | 9721 ft | 270 kts | 97° |
| 2026-05-06 17:47 | -20.18503 | 57.13540 | 9432 ft | 264 kts | 97° |
| 2026-05-06 17:47 | -20.18693 | 57.15463 | 9143 ft | 258 kts | 97° |
| 2026-05-06 17:47 | -20.18880 | 57.17350 | 8867 ft | 255 kts | 97° |
| 2026-05-06 17:47 | -20.19067 | 57.19235 | 8605 ft | 258 kts | 97° |
| 2026-05-06 17:48 | -20.19255 | 57.21147 | 8317 ft | 261 kts | 96° |
| 2026-05-06 17:48 | -20.19447 | 57.23091 | 8046 ft | 267 kts | 96° |
| 2026-05-06 17:48 | -20.19641 | 57.25066 | 7749 ft | 269 kts | 96° |
| 2026-05-06 17:48 | -20.19844 | 57.27024 | 7434 ft | 264 kts | 99° |
| 2026-05-06 17:49 | -20.20511 | 57.28813 | 7116 ft | 259 kts | 122° |
| 2026-05-06 17:49 | -20.21510 | 57.30396 | 6771 ft | 257 kts | 123° |
| 2026-05-06 17:49 | -20.22492 | 57.31927 | 6529 ft | 251 kts | 123° |
| 2026-05-06 17:49 | -20.23470 | 57.33452 | 6242 ft | 247 kts | 123° |
| 2026-05-06 17:50 | -20.24435 | 57.34963 | 5980 ft | 249 kts | 123° |
| 2026-05-06 17:50 | -20.25416 | 57.36505 | 5717 ft | 253 kts | 123° |
| 2026-05-06 17:50 | -20.26413 | 57.38075 | 5492 ft | 257 kts | 122° |
| 2026-05-06 17:50 | -20.27406 | 57.39644 | 5339 ft | 253 kts | 123° |
| 2026-05-06 17:51 | -20.28372 | 57.41166 | 5220 ft | 243 kts | 123° |
| 2026-05-06 17:51 | -20.29300 | 57.42624 | 5163 ft | 232 kts | 123° |
| 2026-05-06 17:51 | -20.30180 | 57.44018 | 5048 ft | 223 kts | 122° |
| 2026-05-06 17:51 | -20.31029 | 57.45349 | 4931 ft | 212 kts | 123° |
| 2026-05-06 17:52 | -20.31835 | 57.46622 | 4790 ft | 203 kts | 122° |
| 2026-05-06 17:52 | -20.32587 | 57.47835 | 4574 ft | 189 kts | 122° |
| 2026-05-06 17:52 | -20.33306 | 57.48962 | 4391 ft | 176 kts | 123° |
| 2026-05-06 17:52 | -20.33977 | 57.50009 | 4155 ft | 167 kts | 122° |
| 2026-05-06 17:53 | -20.34602 | 57.51012 | 3918 ft | 154 kts | 121° |
| 2026-05-06 17:53 | -20.35142 | 57.51976 | 3731 ft | 152 kts | 117° |
| 2026-05-06 17:53 | -20.35634 | 57.52941 | 3495 ft | 149 kts | 116° |
| 2026-05-06 17:53 | -20.36115 | 57.53920 | 3317 ft | 153 kts | 116° |
| 2026-05-06 17:54 | -20.36595 | 57.54924 | 3063 ft | 147 kts | 116° |
| 2026-05-06 17:54 | -20.37057 | 57.55891 | 2851 ft | 146 kts | 115° |
| 2026-05-06 17:54 | -20.37521 | 57.56864 | 2632 ft | 149 kts | 116° |
| 2026-05-06 17:54 | -20.37992 | 57.57842 | 2387 ft | 146 kts | 116° |
| 2026-05-06 17:55 | -20.38443 | 57.58786 | 2153 ft | 140 kts | 117° |
| 2026-05-06 17:55 | -20.38885 | 57.59708 | 1977 ft | 142 kts | 116° |
| 2026-05-06 17:55 | -20.39334 | 57.60650 | 1745 ft | 141 kts | 117° |
| 2026-05-06 17:55 | -20.39778 | 57.61578 | 1553 ft | 142 kts | 116° |
| 2026-05-06 17:56 | -20.40229 | 57.62523 | 1305 ft | 142 kts | 115° |
| 2026-05-06 17:56 | -20.40675 | 57.63456 | 1116 ft | 142 kts | 116° |
| 2026-05-06 17:56 | -20.41131 | 57.64411 | 920 ft | 144 kts | 116° |
| 2026-05-06 17:56 | -20.41590 | 57.65378 | 620 ft | 146 kts | 116° |
| 2026-05-06 17:57 | -20.42053 | 57.66338 | 374 ft | 144 kts | 116° |
| 2026-05-06 17:57 | -20.42505 | 57.67278 | 205 ft | 138 kts | 116° |
| 2026-05-06 17:57 | -20.42878 | 57.68050 | 156 ft | 60 kts | 117° |
| 2026-05-06 17:57 | -20.43013 | 57.68330 | 149 ft | 36 kts | 117° |
| 2026-05-06 17:58 | -20.43103 | 57.68466 | 147 ft | 16 kts | 167° |
| 2026-05-06 17:58 | -20.43208 | 57.68415 | 163 ft | 16 kts | 227° |
| 2026-05-06 17:58 | -20.43198 | 57.68309 | 171 ft | 16 kts | 300° |
| 2026-05-06 17:58 | -20.43144 | 57.68202 | 172 ft | 17 kts | 295° |
| 2026-05-06 17:59 | -20.43146 | 57.68104 | 179 ft | 10 kts | 231° |
| 2026-05-06 17:59 | -20.43149 | 57.68032 | 180 ft | 12 kts | 292° |
| 2026-05-06 17:59 | -20.43112 | 57.67956 | 180 ft | 11 kts | 296° |
| 2026-05-06 17:59 | -20.43079 | 57.67886 | 180 ft | 8 kts | 300° |
| 2026-05-06 18:00 | -20.43047 | 57.67823 | 180 ft | 15 kts | 296° |
| 2026-05-06 18:00 | -20.43024 | 57.67772 | 180 ft | 11 kts | 295° |
| 2026-05-06 18:00 | -20.42994 | 57.67687 | 181 ft | 8 kts | 262° |
| 2026-05-06 18:00 | -20.43036 | 57.67658 | 181 ft | 8 kts | 201° |
| 2026-05-06 18:01 | -20.43063 | 57.67644 | 181 ft | 0 kts | 206° |
| 2026-05-06 18:02 | -20.19094 | 57.19510 | 8561 ft | 0 kts | 97° |
| 2026-05-06 18:02 | -20.41799 | 57.65810 | 502 ft | 146 kts | 116° |
| 2026-05-06 18:02 | -20.42257 | 57.66767 | 271 ft | 143 kts | 116° |
| 2026-05-06 18:02 | -20.42693 | 57.67673 | 173 ft | 130 kts | 117° |
| 2026-05-06 18:03 | -20.42616 | 57.67509 | 197 ft | 130 kts | 115° |
| 2026-05-06 18:03 | -20.42645 | 57.67569 | 179 ft | 121 kts | 116° |
| 2026-05-06 18:04 | -20.41693 | 57.65592 | 560 ft | 145 kts | 116° |
| 2026-05-06 18:04 | -20.42171 | 57.66588 | 314 ft | 144 kts | 116° |
| 2026-05-06 18:04 | -20.42617 | 57.67511 | 197 ft | 132 kts | 115° |
| 2026-05-06 18:04 | -20.42915 | 57.68126 | 155 ft | 40 kts | 117° |
| 2026-05-06 18:05 | -20.41902 | 57.66025 | 448 ft | 143 kts | 117° |
| 2026-05-06 18:05 | -20.42369 | 57.66999 | 231 ft | 141 kts | 116° |
| 2026-05-06 18:06 | -20.42796 | 57.67881 | 163 ft | 112 kts | 118° |
| 2026-05-06 18:06 | -20.42974 | 57.68248 | 151 ft | 42 kts | 116° |
| 2026-05-06 18:06 | -20.43075 | 57.68449 | 148 ft | 15 kts | 134° |
| 2026-05-06 18:06 | -20.43063 | 57.67644 | 181 ft | 0 kts | 206° |